< < Back
Terminal Aerodrome Forecast


Current Version              Previous Versions:   1  2  3  4  5  6  7  8  9  

Terminal Aerodrome Forecast

485
FTUS42 KJAX 231900 AAA
TAFGNV
TAF AMD
KGNV 231933Z 2320/2418 01009KT P6SM VCSH SCT015 BKN035
      TEMPO 2320/2322 5SM SHRA BKN015
     FM240300 01005KT P6SM SCT010 BKN020
     FM240800 01005KT P6SM BKN005 OVC010
     FM241500 03006KT P6SM SCT010 BKN020=

Latest METAR

027
SAUS70 KWBC 232200 RRH
MTRGNV
METAR KGNV 232153Z 07007KT 10SM SCT018 SCT023 BKN070 26/22 A3002 RMK AO2
RAE00 SLP162 P0000 T02560217


USA.gov is the U.S. government's official web portal to all federal, state and local government web resources and services.